createdAt,value
2018-09-21T00:01:52.797Z,20.67
2018-09-21T00:04:01.808Z,19.43
2018-09-21T00:06:10.770Z,20.33
2018-09-21T00:08:16.033Z,21.43
2018-09-21T00:10:20.903Z,20.80
2018-09-21T00:12:25.856Z,19.10
2018-09-21T00:14:31.192Z,19.20
2018-09-21T00:16:36.027Z,19.17
2018-09-21T00:18:40.938Z,19.77
2018-09-21T00:20:45.691Z,19.80
2018-09-21T00:22:51.350Z,18.30
2018-09-21T00:24:56.145Z,19.40
2018-09-21T00:27:01.147Z,25.60
2018-09-21T00:29:05.943Z,21.43
2018-09-21T00:31:11.235Z,20.70
2018-09-21T00:33:16.176Z,17.87
2018-09-21T00:35:20.904Z,20.67
2018-09-21T00:37:25.881Z,17.40
2018-09-21T00:39:30.649Z,19.67
2018-09-21T00:41:36.383Z,18.10
2018-09-21T00:43:42.619Z,18.83
2018-09-21T00:45:47.432Z,21.27
2018-09-21T00:47:52.746Z,16.10
2018-09-21T00:49:57.802Z,18.60
2018-09-21T00:52:03.726Z,19.07
2018-09-21T00:54:09.091Z,17.37
2018-09-21T00:56:14.149Z,17.90
2018-09-21T00:58:19.245Z,16.73
2018-09-21T01:00:24.502Z,19.87
2018-09-21T01:02:29.684Z,16.20
2018-09-21T01:04:38.685Z,14.97
2018-09-21T01:06:44.245Z,15.60
2018-09-21T01:08:49.405Z,17.27
2018-09-21T01:10:54.701Z,19.60
2018-09-21T01:12:59.411Z,16.90
2018-09-21T01:15:04.425Z,18.13
2018-09-21T01:17:09.501Z,19.43
2018-09-21T01:19:14.369Z,16.63
2018-09-21T01:21:19.560Z,17.70
2018-09-21T01:23:24.511Z,14.80
2018-09-21T01:25:29.652Z,15.77
2018-09-21T01:27:34.712Z,16.37
2018-09-21T01:29:39.772Z,12.60
2018-09-21T01:31:44.842Z,11.27
2018-09-21T01:33:49.933Z,10.03
2018-09-21T01:35:55.565Z,11.03
2018-09-21T01:38:00.788Z,7.37
2018-09-21T01:40:05.945Z,9.37
2018-09-21T01:42:10.972Z,6.60
2018-09-21T01:44:16.012Z,6.97
2018-09-21T01:46:21.076Z,8.50
2018-09-21T01:48:27.354Z,10.23
2018-09-21T01:50:32.915Z,8.10
2018-09-21T01:52:38.004Z,7.57
2018-09-21T01:54:42.824Z,7.47
2018-09-21T01:56:48.126Z,8.70
2018-09-21T01:58:53.046Z,6.23
2018-09-21T02:00:58.299Z,6.73
2018-09-21T02:03:03.273Z,6.13
2018-09-21T02:05:11.332Z,6.23
2018-09-21T02:07:16.325Z,7.37
2018-09-21T02:09:21.450Z,5.60
2018-09-21T02:11:26.373Z,5.47
2018-09-21T02:16:01.864Z,4.77
2018-09-21T02:18:07.075Z,5.40
2018-09-21T02:20:11.975Z,4.80
2018-09-21T02:22:16.813Z,4.47
2018-09-21T02:24:21.989Z,3.87
2018-09-21T02:26:27.132Z,3.20
2018-09-21T02:28:31.976Z,5.77
2018-09-21T02:30:36.931Z,3.87
2018-09-21T02:32:42.248Z,4.60
2018-09-21T02:34:47.692Z,3.27
2018-09-21T02:36:52.767Z,3.60
2018-09-21T02:38:57.445Z,3.93
2018-09-21T02:41:02.265Z,3.80
2018-09-21T02:43:07.465Z,4.00
2018-09-21T02:45:14.436Z,3.77
2018-09-21T02:47:19.675Z,4.90
2018-09-21T02:49:24.549Z,3.17
2018-09-21T02:51:29.352Z,2.93
2018-09-21T02:53:34.540Z,2.43
2018-09-21T02:55:39.639Z,2.63
2018-09-21T02:57:44.444Z,3.80
2018-09-21T02:59:52.643Z,2.93
2018-09-21T03:01:57.803Z,2.50
2018-09-21T03:04:02.611Z,4.30
2018-09-21T03:06:07.698Z,2.40
2018-09-21T03:08:12.896Z,4.63
2018-09-21T03:10:18.409Z,2.70
2018-09-21T03:12:23.400Z,2.20
2018-09-21T03:14:28.759Z,3.20
2018-09-21T03:16:33.669Z,3.40
2018-09-21T03:18:43.087Z,2.70
2018-09-21T03:20:48.503Z,2.17
2018-09-21T03:22:53.568Z,2.07
2018-09-21T03:24:58.503Z,1.50
2018-09-21T03:27:03.976Z,1.43
2018-09-21T03:29:08.942Z,2.47
2018-09-21T03:31:14.208Z,2.23
2018-09-21T03:33:19.099Z,1.67
2018-09-21T03:35:24.148Z,2.97
2018-09-21T03:37:29.327Z,2.20
2018-09-21T03:39:34.166Z,1.83
2018-09-21T03:41:39.543Z,2.83
2018-09-21T03:43:44.794Z,2.80
2018-09-21T03:45:51.514Z,2.93
2018-09-21T03:47:56.362Z,2.63
2018-09-21T03:50:01.354Z,2.90
2018-09-21T03:52:06.110Z,2.80
2018-09-21T03:54:11.701Z,2.83
2018-09-21T03:56:16.746Z,3.77
2018-09-21T03:58:21.916Z,2.70
2018-09-21T04:00:26.991Z,2.63
2018-09-21T04:02:32.032Z,3.03
2018-09-21T04:04:37.599Z,3.53
2018-09-21T04:06:42.478Z,2.53
2018-09-21T04:08:47.213Z,3.37
2018-09-21T04:10:52.359Z,2.70
2018-09-21T04:12:57.350Z,3.33
2018-09-21T04:15:02.272Z,3.13
2018-09-21T04:17:07.256Z,3.10
2018-09-21T04:19:12.000Z,2.67
2018-09-21T04:21:16.938Z,3.30
2018-09-21T04:23:22.134Z,2.80
2018-09-21T04:25:27.147Z,3.00
2018-09-21T04:27:32.402Z,3.47
2018-09-21T04:29:37.238Z,3.00
2018-09-21T04:31:41.959Z,2.40
2018-09-21T04:33:46.986Z,3.40
2018-09-21T04:35:51.815Z,3.37
2018-09-21T04:37:56.764Z,3.07
2018-09-21T04:40:01.552Z,3.80
2018-09-21T04:42:06.708Z,2.83
2018-09-21T04:44:11.886Z,5.73
2018-09-21T04:46:16.547Z,4.13
2018-09-21T04:51:07.144Z,4.07
2018-09-21T04:53:12.220Z,2.90
2018-09-21T04:55:17.278Z,3.30
2018-09-21T04:57:22.156Z,3.37
2018-09-21T04:59:27.200Z,3.60
2018-09-21T05:01:32.093Z,3.93
2018-09-21T05:03:36.979Z,3.17
2018-09-21T05:05:41.933Z,3.13
2018-09-21T05:07:46.848Z,5.30
2018-09-21T05:09:51.899Z,3.50
2018-09-21T05:11:56.916Z,3.70
2018-09-21T05:14:01.824Z,3.27
2018-09-21T05:16:06.628Z,3.83
2018-09-21T05:18:11.473Z,3.23
2018-09-21T05:20:15.991Z,3.50
2018-09-21T05:22:21.064Z,3.30
2018-09-21T05:24:26.192Z,3.70
2018-09-21T05:26:30.841Z,3.27
2018-09-21T05:28:35.621Z,3.90
2018-09-21T05:30:40.823Z,4.00
2018-09-21T05:32:45.794Z,3.43
2018-09-21T05:34:50.645Z,4.50
2018-09-21T05:36:55.769Z,3.33
2018-09-21T05:39:00.583Z,3.97
2018-09-21T05:41:05.363Z,3.00
2018-09-21T05:43:10.554Z,3.67
2018-09-21T05:45:15.551Z,3.30
2018-09-21T05:47:20.370Z,3.93
2018-09-21T05:49:26.487Z,3.60
2018-09-21T05:51:31.561Z,4.50
2018-09-21T05:53:36.508Z,4.17
2018-09-21T05:55:41.216Z,3.40
2018-09-21T05:57:46.335Z,3.07
2018-09-21T05:59:51.010Z,4.47
2018-09-21T06:01:55.854Z,3.50
2018-09-21T06:04:00.582Z,2.90
2018-09-21T06:06:05.686Z,3.30
2018-09-21T06:08:10.876Z,3.93
2018-09-21T06:10:15.737Z,3.10
2018-09-21T06:12:20.587Z,3.13
2018-09-21T06:14:25.590Z,3.33
2018-09-21T06:16:30.368Z,3.30
2018-09-21T06:18:35.238Z,3.20
2018-09-21T06:20:40.164Z,3.70
2018-09-21T06:22:45.377Z,3.73
2018-09-21T06:24:50.363Z,4.13
2018-09-21T06:26:55.256Z,3.50
2018-09-21T06:29:00.117Z,3.10
2018-09-21T06:31:05.190Z,3.70
2018-09-21T06:33:09.906Z,3.00
2018-09-21T06:35:14.838Z,3.30
2018-09-21T06:37:19.735Z,3.03
2018-09-21T06:39:24.863Z,3.40
2018-09-21T06:41:29.796Z,2.93
2018-09-21T06:43:34.581Z,2.90
2018-09-21T06:45:39.354Z,2.97
2018-09-21T06:47:44.147Z,3.00
2018-09-21T06:49:48.971Z,4.37
2018-09-21T06:51:53.983Z,4.10
2018-09-21T06:53:59.693Z,3.30
2018-09-21T06:56:04.597Z,3.50
2018-09-21T06:58:10.157Z,3.30
2018-09-21T07:00:15.413Z,2.70
2018-09-21T07:02:20.143Z,3.90
2018-09-21T07:04:24.870Z,4.40
2018-09-21T07:06:30.004Z,3.50
2018-09-21T07:08:34.982Z,3.80
2018-09-21T07:10:39.936Z,3.43
2018-09-21T07:12:45.425Z,3.10
2018-09-21T07:14:50.282Z,3.20
2018-09-21T07:16:55.286Z,3.00
2018-09-21T07:19:00.087Z,4.17
2018-09-21T07:21:04.885Z,3.60
2018-09-21T07:23:09.578Z,3.63
2018-09-21T07:25:14.498Z,3.50
2018-09-21T07:27:19.503Z,3.27
2018-09-21T07:29:24.273Z,2.93
2018-09-21T07:31:29.108Z,3.07
2018-09-21T07:33:34.091Z,3.10
2018-09-21T07:35:39.116Z,3.40
2018-09-21T07:37:44.516Z,3.00
2018-09-21T07:39:49.466Z,2.80
2018-09-21T07:41:54.295Z,3.17
2018-09-21T07:43:59.173Z,2.90
2018-09-21T07:46:03.894Z,3.10
2018-09-21T07:48:09.086Z,3.07
2018-09-21T07:50:13.998Z,3.47
2018-09-21T07:52:19.005Z,3.40
2018-09-21T07:54:23.819Z,3.43
2018-09-21T07:56:28.819Z,3.40
2018-09-21T07:58:33.756Z,4.07
2018-09-21T08:00:38.629Z,3.53
2018-09-21T08:02:43.553Z,3.00
2018-09-21T08:04:48.416Z,3.43
2018-09-21T08:06:53.381Z,2.80
2018-09-21T08:08:58.230Z,3.70
2018-09-21T08:11:03.057Z,2.77
2018-09-21T08:13:08.235Z,3.20
2018-09-21T08:15:13.107Z,2.70
2018-09-21T08:17:17.934Z,2.90
2018-09-21T08:19:23.240Z,3.27
2018-09-21T08:21:27.993Z,3.27
2018-09-21T08:23:32.688Z,2.90
2018-09-21T08:25:37.709Z,2.83
2018-09-21T08:27:42.790Z,3.27
2018-09-21T08:29:47.708Z,3.33
2018-09-21T08:31:52.469Z,2.80
2018-09-21T08:33:57.330Z,3.43
2018-09-21T08:36:02.230Z,3.50
2018-09-21T08:38:06.980Z,3.03
2018-09-21T08:40:12.188Z,3.10
2018-09-21T08:42:17.126Z,3.20
2018-09-21T08:44:22.033Z,3.07
2018-09-21T08:46:26.852Z,2.90
2018-09-21T08:48:31.832Z,3.30
2018-09-21T08:50:36.902Z,3.23
2018-09-21T08:52:41.582Z,3.20
2018-09-21T08:54:46.235Z,2.83
2018-09-21T08:56:51.622Z,2.53
2018-09-21T08:58:56.325Z,3.47
2018-09-21T09:01:01.016Z,3.33
2018-09-21T09:03:06.206Z,2.57
2018-09-21T09:05:11.296Z,2.57
2018-09-21T09:07:16.199Z,2.80
2018-09-21T09:09:21.203Z,2.97
2018-09-21T09:11:26.159Z,4.70
2018-09-21T09:13:31.111Z,2.50
2018-09-21T09:15:36.301Z,2.70
2018-09-21T09:17:41.116Z,2.40
2018-09-21T09:19:46.042Z,2.50
2018-09-21T09:21:50.717Z,2.80
2018-09-21T09:23:55.765Z,3.33
2018-09-21T09:26:00.767Z,2.70
2018-09-21T09:28:05.629Z,2.60
2018-09-21T09:30:10.616Z,2.80
2018-09-21T09:32:15.808Z,2.40
2018-09-21T09:34:20.522Z,2.47
2018-09-21T09:36:25.255Z,2.77
2018-09-21T09:38:30.029Z,2.33
2018-09-21T09:40:34.958Z,3.53
2018-09-21T09:42:40.145Z,2.70
2018-09-21T09:44:44.922Z,2.80
2018-09-21T09:46:49.943Z,2.60
2018-09-21T09:48:55.000Z,2.50
2018-09-21T09:50:59.894Z,5.47
2018-09-21T09:53:04.835Z,4.20
2018-09-21T09:55:09.986Z,5.13
2018-09-21T09:57:14.830Z,3.33
2018-09-21T09:59:20.011Z,3.30
2018-09-21T10:01:24.995Z,3.03
2018-09-21T10:03:30.118Z,5.97
2018-09-21T10:05:35.305Z,3.50
2018-09-21T10:07:40.260Z,3.57
2018-09-21T10:09:45.306Z,5.27
2018-09-21T10:11:51.523Z,4.13
2018-09-21T10:13:56.460Z,16.07
2018-09-21T10:16:01.312Z,30.37
2018-09-21T10:18:06.209Z,16.37
2018-09-21T10:20:11.390Z,12.53
2018-09-21T10:22:16.204Z,11.73
2018-09-21T10:24:20.953Z,11.07
2018-09-21T10:26:25.770Z,9.70
2018-09-21T10:28:30.726Z,10.40
2018-09-21T10:30:35.947Z,9.40
2018-09-21T10:32:40.639Z,8.53
2018-09-21T10:34:47.041Z,10.30
2018-09-21T10:36:52.039Z,7.47
2018-09-21T10:38:56.946Z,7.90
2018-09-21T10:41:02.474Z,6.40
2018-09-21T10:43:07.489Z,7.20
2018-09-21T10:45:12.612Z,7.47
2018-09-21T10:47:17.615Z,6.73
2018-09-21T10:49:22.737Z,7.50
2018-09-21T10:51:27.691Z,6.27
2018-09-21T10:53:32.830Z,5.40
2018-09-21T10:55:37.838Z,5.53
2018-09-21T10:57:42.797Z,6.63
2018-09-21T10:59:47.859Z,8.30
2018-09-21T11:01:52.889Z,6.60
2018-09-21T11:03:57.791Z,5.20
2018-09-21T11:06:02.504Z,6.73
2018-09-21T11:08:07.500Z,5.03
2018-09-21T11:10:12.659Z,7.27
2018-09-21T11:12:17.394Z,6.80
2018-09-21T11:14:22.340Z,4.70
2018-09-21T11:16:27.276Z,5.53
2018-09-21T11:18:32.035Z,6.00
2018-09-21T11:20:36.766Z,7.47
2018-09-21T11:22:41.414Z,4.83
2018-09-21T11:24:46.340Z,7.93
2018-09-21T11:26:51.343Z,8.70
2018-09-21T11:28:56.171Z,11.40
2018-09-21T11:31:01.109Z,6.73
2018-09-21T11:33:06.053Z,6.83
2018-09-21T11:35:10.954Z,9.07
2018-09-21T11:37:15.803Z,5.80
2018-09-21T11:39:20.678Z,5.10
2018-09-21T11:41:25.334Z,5.43
2018-09-21T11:43:30.355Z,5.40
2018-09-21T11:45:35.537Z,5.33
2018-09-21T11:47:40.300Z,6.07
2018-09-21T11:49:45.293Z,5.13
2018-09-21T11:51:57.333Z,5.30
2018-09-21T11:54:02.390Z,4.43
2018-09-21T11:56:07.328Z,5.90
2018-09-21T11:58:12.251Z,8.70
2018-09-21T12:00:17.416Z,9.03
2018-09-21T12:02:22.527Z,6.00
2018-09-21T12:04:28.424Z,8.07
2018-09-21T12:06:33.448Z,7.77
2018-09-21T12:08:40.454Z,4.87
2018-09-21T12:10:45.625Z,6.83
2018-09-21T12:12:50.897Z,6.20
2018-09-21T12:14:55.963Z,7.10
2018-09-21T12:17:00.474Z,6.97
2018-09-21T12:19:06.533Z,11.67
2018-09-21T12:21:13.072Z,8.57
2018-09-21T12:23:17.995Z,7.17
2018-09-21T12:25:23.132Z,8.30
2018-09-21T12:27:28.172Z,6.27
2018-09-21T12:29:32.867Z,7.20
2018-09-21T12:31:40.482Z,6.80
2018-09-21T12:33:46.233Z,7.37
2018-09-21T12:35:51.964Z,7.20
2018-09-21T12:37:57.506Z,11.07
2018-09-21T12:40:03.963Z,16.97
2018-09-21T12:42:10.101Z,8.43
2018-09-21T12:44:15.696Z,13.93
2018-09-21T12:46:21.741Z,14.10
2018-09-21T12:48:28.639Z,19.40
2018-09-21T12:50:34.108Z,15.90
2018-09-21T12:52:40.311Z,19.00
2018-09-21T12:54:45.469Z,18.40
2018-09-21T12:56:50.452Z,20.20
2018-09-21T12:58:55.584Z,18.30
2018-09-21T13:01:01.604Z,20.77
2018-09-21T13:03:06.589Z,17.60
2018-09-21T13:05:11.823Z,13.73
2018-09-21T13:07:16.813Z,19.43
2018-09-21T13:09:21.676Z,17.77
2018-09-21T13:11:26.908Z,18.50
2018-09-21T13:13:31.895Z,12.10
2018-09-21T13:15:38.734Z,15.03
2018-09-21T13:17:43.860Z,15.30
2018-09-21T13:19:48.687Z,12.20
2018-09-21T13:21:53.555Z,11.13
2018-09-21T13:23:58.393Z,14.40
2018-09-21T13:26:03.326Z,13.30
2018-09-21T13:28:08.251Z,15.60
2018-09-21T13:30:13.024Z,13.17
2018-09-21T13:32:18.018Z,12.83
2018-09-21T13:34:22.968Z,11.90
2018-09-21T13:36:27.840Z,14.73
2018-09-21T13:38:33.499Z,12.57
2018-09-21T13:40:38.331Z,574.90
2018-09-21T13:42:42.966Z,791.73
2018-09-21T13:44:47.606Z,665.60
2018-09-21T13:46:52.571Z,202.97
2018-09-21T13:48:57.470Z,58.47
2018-09-21T13:51:02.573Z,46.20
2018-09-21T13:53:07.655Z,37.17
2018-09-21T13:55:13.287Z,32.20
2018-09-21T13:57:18.407Z,34.63
2018-09-21T13:59:23.398Z,30.20
2018-09-21T14:01:28.952Z,23.10
2018-09-21T14:03:33.724Z,22.77
2018-09-21T14:05:38.747Z,24.00
2018-09-21T14:07:44.317Z,21.07
2018-09-21T14:09:49.451Z,21.67
2018-09-21T14:11:54.314Z,20.53
2018-09-21T14:13:59.211Z,21.17
2018-09-21T14:16:04.130Z,16.87
2018-09-21T14:18:09.614Z,60.50
2018-09-21T14:20:14.909Z,39.57
2018-09-21T14:22:20.337Z,46.67
2018-09-21T14:24:25.142Z,41.13
2018-09-21T14:26:30.353Z,30.50
2018-09-21T14:28:35.154Z,41.13
2018-09-21T14:30:40.114Z,34.40
2018-09-21T14:32:45.208Z,34.27
2018-09-21T14:34:50.160Z,32.20
2018-09-21T14:36:55.358Z,30.30
2018-09-21T14:39:00.110Z,34.83
2018-09-21T14:41:05.122Z,31.20
2018-09-21T14:43:09.778Z,37.20
2018-09-21T14:45:14.826Z,34.30
2018-09-21T14:47:19.754Z,35.80
2018-09-21T14:49:25.164Z,30.07
2018-09-21T14:51:29.972Z,35.73
2018-09-21T14:53:34.963Z,28.63
2018-09-21T14:55:39.992Z,33.70
2018-09-21T14:57:44.853Z,37.20
2018-09-21T14:59:49.949Z,29.03
2018-09-21T15:01:54.749Z,34.87
2018-09-21T15:03:59.721Z,33.40
2018-09-21T15:06:04.665Z,32.67
2018-09-21T15:08:09.584Z,35.90
2018-09-21T15:10:14.557Z,31.67
2018-09-21T15:12:19.532Z,30.57
2018-09-21T15:14:24.679Z,33.40
2018-09-21T15:16:29.709Z,31.10
2018-09-21T15:18:34.636Z,29.20
2018-09-21T15:20:39.427Z,27.00
2018-09-21T15:22:44.315Z,25.87
2018-09-21T15:24:49.072Z,25.47
2018-09-21T15:26:54.089Z,30.80
2018-09-21T15:28:59.011Z,22.17
2018-09-21T15:31:05.038Z,26.23
2018-09-21T15:33:09.887Z,30.97
2018-09-21T15:35:14.695Z,30.13
2018-09-21T15:37:19.661Z,33.13
2018-09-21T15:39:25.141Z,25.43
2018-09-21T15:41:29.969Z,27.93
2018-09-21T15:43:35.077Z,22.80
2018-09-21T15:45:39.952Z,22.47
2018-09-21T15:47:44.658Z,21.53
2018-09-21T15:49:49.424Z,25.47
2018-09-21T15:51:54.462Z,23.43
2018-09-21T15:53:59.310Z,23.13
2018-09-21T15:56:04.247Z,20.90
2018-09-21T15:58:09.072Z,24.77
2018-09-21T16:00:13.999Z,22.93
2018-09-21T16:02:18.904Z,23.60
2018-09-21T16:04:23.905Z,20.60
2018-09-21T16:06:32.673Z,24.07
2018-09-21T16:08:37.477Z,20.33
2018-09-21T16:10:42.298Z,18.03
2018-09-21T16:12:47.323Z,18.33
2018-09-21T16:14:52.361Z,19.00
2018-09-21T16:16:57.286Z,19.90
2018-09-21T16:19:02.085Z,22.70
2018-09-21T16:21:06.868Z,17.57
2018-09-21T16:23:12.258Z,21.57
2018-09-21T16:25:17.034Z,20.90
2018-09-21T16:27:21.952Z,18.47
2018-09-21T16:29:27.208Z,20.60
2018-09-21T16:31:32.111Z,18.10
2018-09-21T16:33:37.032Z,18.20
2018-09-21T16:35:42.482Z,18.00
2018-09-21T16:37:47.575Z,19.00
2018-09-21T16:39:52.519Z,15.50
2018-09-21T16:41:57.439Z,16.10
2018-09-21T16:44:03.007Z,18.57
2018-09-21T16:46:08.160Z,17.17
2018-09-21T16:48:13.179Z,19.30
2018-09-21T16:50:18.157Z,14.60
2018-09-21T16:52:22.932Z,17.33
2018-09-21T16:54:28.109Z,13.90
2018-09-21T16:56:33.131Z,15.30
2018-09-21T16:58:38.141Z,13.50
2018-09-21T17:00:43.159Z,12.53
2018-09-21T17:02:48.207Z,15.30
2018-09-21T17:04:53.009Z,18.10
2018-09-21T17:06:58.301Z,15.00
2018-09-21T17:09:03.183Z,13.40
2018-09-21T17:11:08.307Z,15.50
2018-09-21T17:13:13.509Z,13.67
2018-09-21T17:15:18.278Z,13.13
2018-09-21T17:17:23.515Z,13.37
2018-09-21T17:19:28.472Z,14.63
2018-09-21T17:21:33.600Z,12.87
2018-09-21T17:23:38.575Z,13.90
2018-09-21T17:25:43.448Z,13.40
2018-09-21T17:27:48.819Z,12.23
2018-09-21T17:29:53.928Z,12.30
2018-09-21T17:31:59.035Z,15.37
2018-09-21T17:34:03.831Z,13.20
2018-09-21T17:36:08.828Z,12.80
2018-09-21T17:38:14.285Z,13.70
2018-09-21T17:40:19.576Z,13.97
2018-09-21T17:42:24.837Z,14.20
2018-09-21T17:44:29.713Z,14.97
2018-09-21T17:46:34.985Z,13.43
2018-09-21T17:49:42.477Z,14.00
2018-09-21T17:51:47.535Z,11.33
2018-09-21T17:53:52.338Z,15.30
2018-09-21T17:55:57.481Z,12.77
2018-09-21T17:58:02.288Z,14.80
2018-09-21T18:00:07.309Z,12.47
2018-09-21T18:02:12.587Z,13.10
2018-09-21T18:04:17.788Z,12.23
2018-09-21T18:06:22.833Z,12.03
2018-09-21T18:08:28.122Z,12.63
2018-09-21T18:10:34.344Z,11.60
2018-09-21T18:12:39.231Z,11.93
2018-09-21T18:14:44.336Z,10.50
2018-09-21T18:16:49.899Z,11.67
2018-09-21T18:18:55.139Z,11.00
2018-09-21T18:21:00.514Z,10.50
2018-09-21T18:23:05.503Z,14.37
2018-09-21T18:25:10.791Z,11.80
2018-09-21T18:27:15.850Z,11.73
2018-09-21T18:29:21.243Z,14.63
2018-09-21T18:31:26.520Z,13.43
2018-09-21T18:33:32.016Z,13.30
2018-09-21T18:35:37.074Z,13.40
2018-09-21T18:37:42.259Z,13.23
2018-09-21T18:39:47.148Z,13.43
2018-09-21T18:41:52.307Z,11.73
2018-09-21T18:43:57.223Z,12.33
2018-09-21T18:46:02.114Z,13.03
2018-09-21T18:48:07.091Z,14.33
2018-09-21T18:50:11.992Z,14.60
2018-09-21T18:52:18.367Z,12.90
2018-09-21T18:54:23.834Z,14.30
2018-09-21T18:56:28.936Z,12.27
2018-09-21T18:58:33.847Z,12.57
2018-09-21T19:00:39.006Z,12.67
2018-09-21T19:02:44.099Z,11.93
2018-09-21T19:04:49.286Z,13.10
2018-09-21T19:06:54.398Z,11.50
2018-09-21T19:08:59.395Z,10.40
2018-09-21T19:11:04.880Z,10.17
2018-09-21T19:13:09.937Z,11.00
2018-09-21T19:15:15.101Z,9.77
2018-09-21T19:17:21.965Z,10.40
2018-09-21T19:19:28.074Z,10.50
2018-09-21T19:21:33.131Z,12.40
2018-09-21T19:23:38.195Z,9.73
2018-09-21T19:25:43.259Z,10.37
2018-09-21T19:27:48.254Z,11.50
2018-09-21T19:29:53.239Z,13.17
2018-09-21T19:31:58.189Z,10.50
2018-09-21T19:34:03.708Z,11.83
2018-09-21T19:36:08.561Z,9.73
2018-09-21T19:38:14.138Z,10.90
2018-09-21T19:40:19.197Z,11.60
2018-09-21T19:42:24.699Z,11.07
2018-09-21T19:44:29.906Z,9.40
2018-09-21T19:46:35.201Z,12.37
2018-09-21T19:48:40.329Z,9.77
2018-09-21T19:50:45.423Z,10.47
2018-09-21T19:52:50.612Z,8.83
2018-09-21T19:54:55.827Z,12.60
2018-09-21T19:57:00.787Z,13.43
2018-09-21T19:59:05.893Z,9.43
2018-09-21T20:01:10.822Z,11.47
2018-09-21T20:03:15.703Z,9.67
2018-09-21T20:05:20.734Z,11.73
2018-09-21T20:07:25.936Z,8.77
2018-09-21T20:09:30.758Z,8.40
2018-09-21T20:11:36.235Z,7.77
2018-09-21T20:13:41.111Z,8.10
2018-09-21T20:15:46.015Z,9.50
2018-09-21T20:17:51.033Z,8.70
2018-09-21T20:19:56.381Z,8.57
2018-09-21T20:22:01.714Z,9.97
2018-09-21T20:24:07.129Z,9.27
2018-09-21T20:26:12.218Z,9.33
2018-09-21T20:28:17.284Z,8.20
2018-09-21T20:30:26.383Z,8.63
2018-09-21T20:33:34.262Z,23.73
2018-09-21T20:35:39.209Z,20.50
2018-09-21T20:37:44.526Z,28.83
2018-09-21T20:39:49.428Z,9.37
2018-09-21T20:41:54.483Z,13.23
2018-09-21T20:43:59.242Z,15.50
2018-09-21T20:46:04.310Z,13.20
2018-09-21T20:48:09.708Z,10.17
2018-09-21T20:50:14.614Z,9.33
2018-09-21T20:52:19.625Z,10.40
2018-09-21T20:54:24.618Z,10.93
2018-09-21T20:56:29.656Z,10.50
2018-09-21T20:58:34.583Z,10.57
2018-09-21T21:00:39.576Z,10.47
2018-09-21T21:02:44.522Z,8.03
2018-09-21T21:04:49.522Z,7.53
2018-09-21T21:06:54.825Z,8.60
2018-09-21T21:09:00.230Z,8.20
2018-09-21T21:11:05.572Z,10.07
2018-09-21T21:13:10.691Z,12.90
2018-09-21T21:15:15.739Z,8.57
2018-09-21T21:17:21.085Z,7.40
2018-09-21T21:19:26.148Z,8.47
2018-09-21T21:21:31.354Z,7.00
2018-09-21T21:23:36.733Z,8.70
2018-09-21T21:25:41.716Z,8.77
2018-09-21T21:27:46.934Z,9.37
2018-09-21T21:29:51.914Z,7.53
2018-09-21T21:31:57.095Z,10.33
2018-09-21T21:34:01.991Z,7.17
2018-09-21T21:36:08.490Z,6.50
2018-09-21T21:38:13.412Z,7.23
2018-09-21T21:40:18.341Z,7.23
2018-09-21T21:42:23.353Z,6.83
2018-09-21T21:44:28.026Z,7.73
2018-09-21T21:46:33.092Z,10.10
2018-09-21T21:48:38.432Z,8.33
2018-09-21T21:50:44.266Z,8.30
2018-09-21T21:52:49.923Z,9.33
2018-09-21T21:54:57.150Z,8.90
2018-09-21T21:57:02.645Z,7.90
2018-09-21T21:59:08.259Z,10.03
2018-09-21T22:01:18.022Z,7.37
2018-09-21T22:03:23.939Z,8.10
2018-09-21T22:05:29.974Z,7.37
2018-09-21T22:07:38.176Z,10.30
2018-09-21T22:09:43.640Z,9.10
2018-09-21T22:11:53.262Z,10.90
2018-09-21T22:14:02.704Z,13.77
2018-09-21T22:16:08.761Z,26.83
2018-09-21T22:18:14.785Z,47.33
2018-09-21T22:20:20.482Z,21.77
2018-09-21T22:22:25.703Z,23.50
2018-09-21T22:24:32.014Z,22.87
2018-09-21T22:26:41.389Z,26.87
2018-09-21T22:28:47.185Z,21.53
2018-09-21T22:30:53.127Z,27.20
2018-09-21T22:32:58.674Z,16.13
2018-09-21T22:35:04.209Z,23.30
2018-09-21T22:37:09.470Z,13.77
2018-09-21T22:39:14.546Z,19.60
2018-09-21T22:41:19.946Z,18.73
2018-09-21T22:43:25.816Z,29.70
2018-09-21T22:47:44.530Z,16.87
2018-09-21T22:49:49.277Z,58.47
2018-09-21T22:51:54.195Z,18.80
2018-09-21T22:53:59.331Z,19.33
2018-09-21T22:56:04.245Z,27.50
2018-09-21T22:58:09.140Z,19.90
2018-09-21T23:00:14.162Z,16.63
2018-09-21T23:02:19.175Z,12.27
2018-09-21T23:04:24.200Z,9.90
2018-09-21T23:06:29.096Z,14.40
2018-09-21T23:08:34.171Z,10.73
2018-09-21T23:10:39.152Z,16.47
2018-09-21T23:12:44.105Z,13.27
2018-09-21T23:14:48.849Z,9.90
2018-09-21T23:16:53.753Z,12.27
2018-09-21T23:18:58.622Z,11.40
2018-09-21T23:21:03.690Z,8.47
2018-09-21T23:23:09.232Z,8.50
2018-09-21T23:25:15.224Z,10.57
2018-09-21T23:27:20.407Z,13.53
2018-09-21T23:29:28.925Z,9.77
2018-09-21T23:31:33.791Z,8.33
2018-09-21T23:33:38.998Z,8.53
2018-09-21T23:35:44.610Z,12.50
2018-09-21T23:37:49.744Z,8.50
2018-09-21T23:39:54.732Z,8.20
2018-09-21T23:41:59.819Z,11.03
2018-09-21T23:44:05.040Z,8.70
2018-09-21T23:46:10.093Z,8.57
2018-09-21T23:48:17.502Z,16.40
2018-09-21T23:50:23.091Z,7.10
2018-09-21T23:52:28.674Z,13.10
2018-09-21T23:54:33.984Z,11.60
2018-09-21T23:56:38.772Z,10.87
2018-09-21T23:58:43.606Z,10.57
